18 Jul 2018 01:14 UTC 2018199+01:14 UTC

Overview Datums Bench Marks Data Query Site Visit Daily QC Messages Attributes

079: SALT08

27° 52' 14" N   97° 31' 3" W
SALT08
City of Corpus Christi Salinity Monitoring Salinity

Station Information

SALT08
SALT08
more pictures
 
Station Name:SALT08
DNR ID:079
Location:27° 52' 14" N, 97° 31' 3" W

Water Level Forecasts

Latest Observations

Series Metric English Marine Observed at
Water Temperature 31.9 °C 89.4 °F 89.4 °F Jul 17 20:06 CDT
00h07m ago
Salinity 20.800 psu 20.800 psu 20.800 psu Jul 17 20:06 CDT
00h07m ago

Maps

SALT08
All Stations in Area
Entire Network
 

Recent Observations

Date/Time Water
Temp (°F)
Sal (psu)
Jul 17 20:00 CDT 89.4 20.600
Jul 17 19:00 CDT 89.2 19.600
Jul 17 18:00 CDT 89.1 21.800
Jul 17 17:00 CDT 88.2 17.900
Jul 17 16:00 CDT 88.0 20.700
Jul 17 15:00 CDT 88.0 19.400
Jul 17 14:00 CDT 86.9 21.400
Jul 17 13:00 CDT 86.4 21.300
Jul 17 12:00 CDT 85.3 17.100
Jul 17 11:00 CDT 83.1 21.300
Jul 17 10:00 CDT 81.9 20.300
Jul 17 09:00 CDT 81.3 21.100
Jul 17 08:00 CDT 81.0 13.700
Jul 17 07:00 CDT 81.0 13.400
Jul 17 06:00 CDT 81.1 14.100
Jul 17 05:00 CDT 82.0 18.000
Jul 17 04:00 CDT 82.2 13.800
Jul 17 03:00 CDT 82.4 14.500
Jul 17 02:00 CDT 82.8 20.600
Jul 17 01:00 CDT 83.5 21.300
Jul 17 00:00 CDT 84.4 21.500
Jul 16 23:00 CDT 85.1 19.900
Jul 16 22:00 CDT 86.4 21.500
Jul 16 21:00 CDT 87.4 16.700
Jul 16 20:00 CDT 88.0 21.600

Historical Data Availability